createdAt,value
2022-08-01T00:00:09.142Z,16.36
2022-08-01T00:02:36.833Z,16.50
2022-08-01T00:05:03.623Z,16.76
2022-08-01T00:07:30.224Z,16.89
2022-08-01T00:09:56.746Z,17.09
2022-08-01T00:12:23.314Z,16.98
2022-08-01T00:14:50.056Z,17.02
2022-08-01T00:17:16.790Z,16.84
2022-08-01T00:19:43.332Z,16.71
2022-08-01T00:22:10.177Z,16.61
2022-08-01T00:24:36.864Z,16.51
2022-08-01T00:27:03.482Z,16.40
2022-08-01T00:30:11.862Z,16.21
2022-08-01T00:32:16.915Z,16.19
2022-08-01T00:34:43.455Z,15.99
2022-08-01T00:37:10.370Z,15.87
2022-08-01T00:39:42.077Z,15.73
2022-08-01T00:42:10.447Z,15.82
2022-08-01T00:44:37.230Z,15.75
2022-08-01T00:47:04.602Z,15.59
2022-08-01T00:49:31.667Z,15.57
2022-08-01T00:51:59.418Z,15.50
2022-08-01T00:54:27.695Z,15.37
2022-08-01T00:56:55.040Z,15.32
2022-08-01T00:59:25.932Z,15.22
2022-08-01T01:01:53.709Z,15.12
2022-08-01T01:04:20.486Z,14.98
2022-08-01T01:06:49.867Z,14.92
2022-08-01T01:09:22.092Z,14.85
2022-08-01T01:12:06.000Z,14.79
2022-08-01T01:14:39.035Z,14.75
2022-08-01T01:17:09.896Z,14.69
2022-08-01T01:19:44.198Z,14.63
2022-08-01T01:22:47.347Z,14.88
2022-08-01T01:25:23.068Z,14.82
2022-08-01T01:28:03.169Z,14.89
2022-08-01T01:30:31.981Z,15.07
2022-08-01T01:33:02.209Z,15.24
2022-08-01T01:35:33.470Z,15.18
2022-08-01T01:38:10.170Z,15.16
2022-08-01T01:40:39.013Z,15.11
2022-08-01T01:43:10.653Z,15.06
2022-08-01T01:45:38.465Z,14.98
2022-08-01T01:48:07.442Z,14.83
2022-08-01T01:50:35.787Z,14.79
2022-08-01T01:53:05.113Z,14.74
2022-08-01T01:55:33.505Z,14.69
2022-08-01T01:58:16.979Z,14.66
2022-08-01T02:00:45.554Z,14.50
2022-08-01T02:03:13.351Z,14.68
2022-08-01T02:05:43.146Z,14.72
2022-08-01T02:08:11.855Z,14.82
2022-08-01T02:10:40.255Z,14.94
2022-08-01T02:13:07.569Z,15.27
2022-08-01T02:15:59.913Z,15.48
2022-08-01T02:18:26.858Z,15.68
2022-08-01T02:20:55.871Z,16.03
2022-08-01T02:23:25.146Z,16.00
2022-08-01T02:26:09.627Z,16.07
2022-08-01T02:28:46.673Z,16.19
2022-08-01T02:31:15.431Z,16.24
2022-08-01T02:33:49.286Z,16.22
2022-08-01T02:36:31.206Z,16.20
2022-08-01T02:39:04.404Z,16.00
2022-08-01T02:41:32.590Z,16.02
2022-08-01T02:44:04.283Z,15.96
2022-08-01T02:46:53.112Z,15.84
2022-08-01T02:49:22.201Z,15.80
2022-08-01T02:51:50.223Z,15.80
2022-08-01T02:54:19.743Z,15.75
2022-08-01T02:56:49.341Z,15.58
2022-08-01T02:59:21.408Z,15.53
2022-08-01T03:01:50.874Z,15.60
2022-08-01T03:04:19.806Z,15.71
2022-08-01T03:06:48.365Z,15.82
2022-08-01T03:09:16.823Z,15.81
2022-08-01T03:11:45.211Z,15.84
2022-08-01T03:14:13.814Z,16.02
2022-08-01T03:16:43.439Z,16.01
2022-08-01T03:19:11.935Z,16.16
2022-08-01T03:21:40.569Z,16.05
2022-08-01T03:24:08.474Z,16.00
2022-08-01T03:26:37.116Z,15.88
2022-08-01T03:29:10.882Z,15.77
2022-08-01T03:31:39.365Z,15.74
2022-08-01T03:34:07.044Z,15.78
2022-08-01T03:36:35.625Z,15.74
2022-08-01T03:39:05.067Z,15.75
2022-08-01T03:41:38.663Z,15.71
2022-08-01T03:44:11.322Z,15.80
2022-08-01T03:46:43.461Z,15.83
2022-08-01T03:49:24.667Z,15.93
2022-08-01T03:51:52.453Z,16.07
2022-08-01T03:54:23.841Z,16.41
2022-08-01T03:56:52.473Z,16.55
2022-08-01T03:59:20.132Z,16.52
2022-08-01T04:01:47.511Z,16.67
2022-08-01T04:04:14.651Z,16.85
2022-08-01T04:06:42.403Z,17.04
2022-08-01T04:09:13.399Z,17.10
2022-08-01T04:11:40.952Z,17.39
2022-08-01T04:14:08.672Z,17.40
2022-08-01T04:16:36.206Z,17.39
2022-08-01T04:19:03.641Z,17.34
2022-08-01T04:21:33.378Z,17.17
2022-08-01T04:24:05.957Z,17.09
2022-08-01T04:26:35.774Z,17.01
2022-08-01T04:29:05.868Z,16.98
2022-08-01T04:31:33.580Z,16.93
2022-08-01T04:34:03.226Z,16.94
2022-08-01T04:36:31.284Z,16.92
2022-08-01T04:39:01.216Z,16.91
2022-08-01T04:41:28.783Z,16.95
2022-08-01T04:43:56.054Z,16.98
2022-08-01T04:46:23.583Z,17.01
2022-08-01T04:48:51.495Z,17.05
2022-08-01T04:51:22.837Z,17.10
2022-08-01T04:53:51.925Z,17.14
2022-08-01T04:56:20.043Z,17.18
2022-08-01T04:58:46.562Z,17.24
2022-08-01T05:01:13.949Z,17.29
2022-08-01T05:03:40.715Z,17.37
2022-08-01T05:06:07.523Z,17.48
2022-08-01T05:08:34.129Z,17.59
2022-08-01T05:11:02.154Z,17.71
2022-08-01T05:13:28.853Z,17.84
2022-08-01T05:15:55.455Z,17.95
2022-08-01T05:18:28.288Z,18.12
2022-08-01T05:20:55.187Z,18.42
2022-08-01T05:23:40.376Z,18.66
2022-08-01T05:26:08.907Z,18.84
2022-08-01T05:28:36.421Z,18.95
2022-08-01T05:31:04.318Z,19.02
2022-08-01T05:33:30.875Z,19.08
2022-08-01T05:35:57.452Z,19.14
2022-08-01T05:38:23.966Z,19.19
2022-08-01T05:40:50.687Z,19.22
2022-08-01T05:43:17.293Z,19.27
2022-08-01T05:45:43.898Z,19.32
2022-08-01T05:48:10.499Z,19.38
2022-08-01T05:50:37.101Z,19.49
2022-08-01T05:53:03.627Z,19.58
2022-08-01T05:55:30.307Z,19.67
2022-08-01T05:57:56.810Z,19.75
2022-08-01T06:00:23.530Z,19.83
2022-08-01T06:02:50.101Z,19.90
2022-08-01T06:05:16.790Z,20.02
2022-08-01T06:07:43.439Z,20.13
2022-08-01T06:10:10.311Z,20.20
2022-08-01T06:12:37.684Z,20.27
2022-08-01T06:15:05.841Z,20.39
2022-08-01T06:17:32.545Z,20.52
2022-08-01T06:19:59.082Z,20.63
2022-08-01T06:22:25.627Z,20.76
2022-08-01T06:24:52.544Z,20.88
2022-08-01T06:27:21.948Z,21.08
2022-08-01T06:29:53.586Z,21.24
2022-08-01T06:32:26.828Z,21.36
2022-08-01T06:34:53.960Z,21.44
2022-08-01T06:37:20.509Z,21.53
2022-08-01T06:39:47.127Z,21.67
2022-08-01T06:42:15.830Z,21.80
2022-08-01T06:44:42.693Z,21.84
2022-08-01T06:47:09.220Z,21.88
2022-08-01T06:49:36.049Z,21.95
2022-08-01T06:52:04.425Z,21.99
2022-08-01T06:54:31.238Z,22.12
2022-08-01T06:56:57.758Z,22.20
2022-08-01T06:59:24.308Z,22.27
2022-08-01T07:01:50.919Z,22.30
2022-08-01T07:04:17.479Z,22.39
2022-08-01T07:06:44.018Z,22.50
2022-08-01T07:09:14.217Z,22.64
2022-08-01T07:11:42.025Z,22.75
2022-08-01T07:14:09.008Z,22.86
2022-08-01T07:16:35.620Z,22.96
2022-08-01T07:19:02.319Z,23.06
2022-08-01T07:21:40.345Z,23.17
2022-08-01T07:24:13.259Z,23.29
2022-08-01T07:26:53.133Z,23.44
2022-08-01T07:29:22.983Z,23.56
2022-08-01T07:31:49.547Z,23.67
2022-08-01T07:34:16.062Z,23.80
2022-08-01T07:36:43.455Z,24.00
2022-08-01T07:39:09.990Z,24.16
2022-08-01T07:41:52.768Z,24.34
2022-08-01T07:44:23.282Z,24.52
2022-08-01T07:46:49.847Z,24.74
2022-08-01T07:49:16.489Z,24.91
2022-08-01T07:51:43.062Z,25.05
2022-08-01T07:54:33.936Z,25.22
2022-08-01T07:57:02.098Z,25.41
2022-08-01T07:59:28.732Z,25.62
2022-08-01T08:01:55.361Z,25.82
2022-08-01T08:04:21.976Z,26.00
2022-08-01T08:06:48.687Z,26.20
2022-08-01T08:09:16.207Z,26.35
2022-08-01T08:11:48.124Z,26.43
2022-08-01T08:14:16.019Z,26.49
2022-08-01T08:16:43.771Z,26.52
2022-08-01T08:19:10.747Z,26.52
2022-08-01T08:21:38.774Z,26.50
2022-08-01T08:24:31.714Z,26.52
2022-08-01T08:27:00.353Z,26.49
2022-08-01T08:29:28.025Z,26.43
2022-08-01T08:31:58.627Z,26.36
2022-08-01T08:34:26.891Z,26.32
2022-08-01T08:36:55.584Z,26.22
2022-08-01T08:39:22.170Z,26.22
2022-08-01T08:41:50.019Z,26.18
2022-08-01T08:44:20.555Z,26.06
2022-08-01T08:46:49.999Z,26.01
2022-08-01T08:49:21.971Z,26.01
2022-08-01T08:51:51.289Z,26.00
2022-08-01T08:54:21.739Z,26.01
2022-08-01T08:56:49.485Z,25.99
2022-08-01T08:59:16.026Z,25.96
2022-08-01T09:01:43.983Z,25.99
2022-08-01T09:04:11.987Z,26.01
2022-08-01T09:06:39.310Z,26.06
2022-08-01T09:09:07.260Z,26.12
2022-08-01T09:11:34.452Z,26.14
2022-08-01T09:14:16.103Z,26.23
2022-08-01T09:16:48.856Z,26.32
2022-08-01T09:19:40.526Z,26.40
2022-08-01T09:22:08.816Z,26.52
2022-08-01T09:24:36.880Z,26.67
2022-08-01T09:27:21.964Z,26.80
2022-08-01T09:30:01.134Z,26.95
2022-08-01T09:32:36.053Z,27.06
2022-08-01T09:35:30.890Z,27.15
2022-08-01T09:38:16.628Z,27.15
2022-08-01T09:40:49.413Z,27.19
2022-08-01T09:43:16.186Z,27.12
2022-08-01T09:45:43.817Z,27.08
2022-08-01T09:48:18.933Z,27.01
2022-08-01T09:50:50.158Z,27.08
2022-08-01T09:53:24.495Z,27.18
2022-08-01T09:56:10.678Z,27.16
2022-08-01T09:59:00.420Z,27.24
2022-08-01T10:01:36.569Z,27.35
2022-08-01T10:04:20.638Z,27.55
2022-08-01T10:06:55.861Z,27.72
2022-08-01T10:09:39.619Z,27.85
2022-08-01T10:12:08.839Z,27.99
2022-08-01T10:14:37.699Z,28.19
2022-08-01T10:17:07.863Z,28.33
2022-08-01T10:19:38.870Z,28.47
2022-08-01T10:22:08.554Z,28.56
2022-08-01T10:24:41.083Z,28.67
2022-08-01T10:27:12.400Z,28.83
2022-08-01T10:30:05.156Z,29.02
2022-08-01T10:32:34.284Z,29.10
2022-08-01T10:35:06.808Z,29.22
2022-08-01T10:37:52.440Z,29.40
2022-08-01T10:40:36.992Z,29.56
2022-08-01T10:43:04.648Z,29.65
2022-08-01T10:45:31.781Z,29.88
2022-08-01T10:48:03.287Z,30.05
2022-08-01T10:50:43.348Z,30.22
2022-08-01T10:53:24.426Z,30.30
2022-08-01T10:56:04.256Z,30.38
2022-08-01T10:58:42.774Z,30.46
2022-08-01T11:01:23.341Z,30.52
2022-08-01T11:04:01.574Z,30.68
2022-08-01T11:06:34.336Z,30.93
2022-08-01T11:09:36.977Z,31.10
2022-08-01T11:12:23.145Z,31.28
2022-08-01T11:14:59.679Z,31.33
2022-08-01T11:17:37.553Z,31.38
2022-08-01T11:20:34.253Z,31.49
2022-08-01T11:23:02.046Z,31.55
2022-08-01T11:26:05.601Z,31.59
2022-08-01T11:28:32.307Z,31.46
2022-08-01T11:31:14.032Z,31.44
2022-08-01T11:33:40.659Z,31.47
2022-08-01T11:36:36.992Z,31.54
2022-08-01T11:39:13.812Z,31.63
2022-08-01T11:41:42.010Z,31.72
2022-08-01T11:44:17.246Z,31.97
2022-08-01T11:47:09.991Z,32.15
2022-08-01T11:49:55.961Z,32.32
2022-08-01T11:52:32.706Z,32.30
2022-08-01T11:55:10.351Z,32.12
2022-08-01T11:57:41.054Z,32.05
2022-08-01T12:00:17.431Z,32.10
2022-08-01T12:02:58.857Z,32.23
2022-08-01T12:05:26.560Z,32.30
2022-08-01T12:07:55.978Z,32.36
2022-08-01T12:10:25.416Z,32.48
2022-08-01T12:13:00.110Z,32.61
2022-08-01T12:15:32.134Z,32.69
2022-08-01T12:18:01.577Z,32.72
2022-08-01T12:20:31.891Z,32.80
2022-08-01T12:23:10.157Z,32.89
2022-08-01T12:25:38.072Z,32.88
2022-08-01T12:28:06.639Z,32.93
2022-08-01T12:30:38.214Z,33.05
2022-08-01T12:33:10.604Z,33.15
2022-08-01T12:35:39.348Z,33.16
2022-08-01T12:38:07.410Z,33.11
2022-08-01T12:40:38.225Z,33.01
2022-08-01T12:43:09.258Z,32.95
2022-08-01T12:45:54.360Z,32.79
2022-08-01T12:48:24.593Z,32.84
2022-08-01T12:50:53.488Z,33.02
2022-08-01T12:53:21.507Z,33.20
2022-08-01T12:55:58.313Z,33.25
2022-08-01T12:58:32.418Z,33.31
2022-08-01T13:01:14.154Z,33.39
2022-08-01T13:03:41.327Z,33.17
2022-08-01T13:06:16.551Z,33.13
2022-08-01T13:08:44.749Z,32.99
2022-08-01T13:11:16.622Z,33.03
2022-08-01T13:13:53.685Z,32.95
2022-08-01T13:16:27.907Z,32.97
2022-08-01T13:19:01.579Z,33.02
2022-08-01T13:21:52.135Z,32.97
2022-08-01T13:24:17.233Z,32.89
2022-08-01T13:26:52.111Z,32.87
2022-08-01T13:29:21.713Z,32.70
2022-08-01T13:31:48.905Z,32.70
2022-08-01T13:34:16.134Z,32.54
2022-08-01T13:36:49.010Z,32.40
2022-08-01T13:39:35.661Z,32.36
2022-08-01T13:42:02.300Z,32.37
2022-08-01T13:44:28.862Z,32.25
2022-08-01T13:46:57.178Z,32.26
2022-08-01T13:49:24.401Z,32.33
2022-08-01T13:51:51.684Z,32.29
2022-08-01T13:54:19.053Z,32.41
2022-08-01T13:56:45.723Z,32.57
2022-08-01T13:59:12.556Z,32.73
2022-08-01T14:01:39.190Z,32.82
2022-08-01T14:04:06.166Z,32.86
2022-08-01T14:06:33.815Z,32.79
2022-08-01T14:09:01.342Z,32.54
2022-08-01T14:11:30.642Z,32.77
2022-08-01T14:14:04.783Z,32.98
2022-08-01T14:16:35.294Z,33.26
2022-08-01T14:19:04.039Z,33.55
2022-08-01T14:21:30.707Z,33.51
2022-08-01T14:23:57.208Z,33.20
2022-08-01T14:26:23.795Z,32.87
2022-08-01T14:28:50.393Z,33.23
2022-08-01T14:31:16.913Z,33.71
2022-08-01T14:33:43.484Z,34.11
2022-08-01T14:36:30.761Z,34.50
2022-08-01T14:39:00.204Z,34.94
2022-08-01T14:41:28.150Z,35.15
2022-08-01T14:43:54.758Z,35.51
2022-08-01T14:46:21.370Z,35.93
2022-08-01T14:48:47.986Z,36.25
2022-08-01T14:51:14.576Z,36.55
2022-08-01T14:53:45.833Z,37.12
2022-08-01T14:56:13.259Z,37.74
2022-08-01T14:58:39.784Z,38.20
2022-08-01T15:01:06.870Z,38.40
2022-08-01T15:03:33.830Z,38.25
2022-08-01T15:06:00.578Z,38.66
2022-08-01T15:08:27.461Z,38.83
2022-08-01T15:10:54.023Z,39.03
2022-08-01T15:13:20.722Z,39.49
2022-08-01T15:15:47.922Z,39.83
2022-08-01T15:18:14.634Z,40.31
2022-08-01T15:20:41.713Z,40.57
2022-08-01T15:23:08.387Z,40.49
2022-08-01T15:25:40.897Z,40.34
2022-08-01T15:28:12.403Z,40.23
2022-08-01T15:30:39.657Z,40.38
2022-08-01T15:33:06.487Z,40.47
2022-08-01T15:35:33.435Z,39.81
2022-08-01T15:38:00.091Z,39.63
2022-08-01T15:40:27.700Z,40.61
2022-08-01T15:42:54.292Z,41.07
2022-08-01T15:45:47.245Z,41.61
2022-08-01T15:48:08.923Z,41.93
2022-08-01T15:50:35.641Z,41.85
2022-08-01T15:53:02.222Z,42.17
2022-08-01T15:55:28.819Z,42.38
2022-08-01T15:57:56.065Z,42.37
2022-08-01T16:00:22.821Z,42.11
2022-08-01T16:02:50.546Z,42.02
2022-08-01T16:05:20.469Z,41.54
2022-08-01T16:07:59.235Z,41.24
2022-08-01T16:10:28.835Z,40.34
2022-08-01T16:12:55.384Z,39.91
2022-08-01T16:15:22.693Z,39.38
2022-08-01T16:18:01.986Z,38.78
2022-08-01T16:20:29.262Z,38.61
2022-08-01T16:22:55.825Z,38.08
2022-08-01T16:25:22.399Z,37.88
2022-08-01T16:27:48.984Z,37.54
2022-08-01T16:30:15.568Z,37.30
2022-08-01T16:32:45.449Z,36.87
2022-08-01T16:35:15.416Z,36.62
2022-08-01T16:37:42.624Z,36.59
2022-08-01T16:40:09.568Z,36.52
2022-08-01T16:42:36.153Z,36.46
2022-08-01T16:45:08.655Z,36.24
2022-08-01T16:47:39.511Z,36.07
2022-08-01T16:50:06.398Z,35.68
2022-08-01T16:52:32.907Z,35.33
2022-08-01T16:54:59.516Z,35.11
2022-08-01T16:57:26.039Z,34.97
2022-08-01T16:59:52.607Z,34.72
2022-08-01T17:02:19.175Z,34.49
2022-08-01T17:04:45.763Z,34.49
2022-08-01T17:07:12.309Z,34.42
2022-08-01T17:09:43.323Z,34.30
2022-08-01T17:12:10.675Z,34.15
2022-08-01T17:14:39.871Z,33.90
2022-08-01T17:17:07.387Z,33.72
2022-08-01T17:19:34.437Z,33.61
2022-08-01T17:22:01.065Z,33.41
2022-08-01T17:24:27.903Z,33.03
2022-08-01T17:26:54.571Z,32.62
2022-08-01T17:29:21.203Z,32.16
2022-08-01T17:31:47.898Z,32.05
2022-08-01T17:34:14.666Z,31.65
2022-08-01T17:36:41.411Z,31.23
2022-08-01T17:39:08.821Z,30.84
2022-08-01T17:41:35.619Z,30.67
2022-08-01T17:44:02.216Z,30.35
2022-08-01T17:46:28.736Z,29.96
2022-08-01T17:48:55.323Z,29.78
2022-08-01T17:51:23.003Z,29.53
2022-08-01T17:53:56.132Z,29.39
2022-08-01T17:56:24.462Z,29.22
2022-08-01T17:58:52.246Z,29.01
2022-08-01T18:01:20.545Z,28.75
2022-08-01T18:03:48.065Z,28.56
2022-08-01T18:06:19.371Z,28.36
2022-08-01T18:08:47.153Z,28.24
2022-08-01T18:11:15.085Z,28.14
2022-08-01T18:13:41.669Z,28.07
2022-08-01T18:16:11.292Z,27.92
2022-08-01T18:18:39.108Z,27.83
2022-08-01T18:21:07.061Z,27.70
2022-08-01T18:23:35.095Z,27.58
2022-08-01T18:26:03.049Z,27.43
2022-08-01T18:28:34.049Z,27.23
2022-08-01T18:31:03.587Z,27.12
2022-08-01T18:33:30.184Z,27.02
2022-08-01T18:36:03.793Z,26.92
2022-08-01T18:38:33.173Z,26.89
2022-08-01T18:41:00.770Z,26.85
2022-08-01T18:43:27.629Z,26.86
2022-08-01T18:45:56.936Z,26.65
2022-08-01T18:48:23.643Z,26.55
2022-08-01T18:50:50.175Z,26.44
2022-08-01T18:53:18.768Z,26.49
2022-08-01T18:55:46.127Z,26.33
2022-08-01T18:58:12.705Z,26.26
2022-08-01T19:00:39.990Z,26.22
2022-08-01T19:03:07.751Z,26.25
2022-08-01T19:05:35.819Z,26.17
2022-08-01T19:08:06.822Z,26.17
2022-08-01T19:10:36.108Z,25.98
2022-08-01T19:13:03.040Z,25.91
2022-08-01T19:15:29.842Z,25.79
2022-08-01T19:17:56.478Z,25.68
2022-08-01T19:20:23.247Z,25.63
2022-08-01T19:22:51.923Z,25.54
2022-08-01T19:25:18.498Z,25.49
2022-08-01T19:27:48.065Z,25.45
2022-08-01T19:30:17.319Z,25.48
2022-08-01T19:32:45.817Z,25.44
2022-08-01T19:35:14.586Z,25.39
2022-08-01T19:37:47.247Z,25.26
2022-08-01T19:40:26.834Z,25.13
2022-08-01T19:42:56.402Z,25.14
2022-08-01T19:45:23.174Z,25.13
2022-08-01T19:47:57.316Z,25.05
2022-08-01T19:50:29.158Z,24.93
2022-08-01T19:52:57.587Z,24.83
2022-08-01T19:55:25.184Z,24.76
2022-08-01T19:58:26.307Z,24.75
2022-08-01T20:00:40.621Z,24.61
2022-08-01T20:03:09.092Z,24.55
2022-08-01T20:05:37.260Z,24.56
2022-08-01T20:08:06.675Z,24.46
2022-08-01T20:10:34.191Z,24.45
2022-08-01T20:13:01.424Z,24.36
2022-08-01T20:15:29.323Z,24.32
2022-08-01T20:17:59.634Z,24.20
2022-08-01T20:20:27.523Z,24.24
2022-08-01T20:22:56.932Z,24.16
2022-08-01T20:25:32.070Z,24.14
2022-08-01T20:28:08.716Z,24.10
2022-08-01T20:30:35.348Z,24.09
2022-08-01T20:33:01.912Z,23.99
2022-08-01T20:35:51.454Z,23.89
2022-08-01T20:38:17.342Z,23.84
2022-08-01T20:40:45.584Z,23.70
2022-08-01T20:43:12.327Z,23.64
2022-08-01T20:45:39.248Z,23.56
2022-08-01T20:48:08.068Z,23.46
2022-08-01T20:50:54.911Z,23.40
2022-08-01T20:53:24.428Z,23.32
2022-08-01T20:56:00.803Z,23.22
2022-08-01T20:58:37.000Z,23.11
2022-08-01T21:01:09.663Z,23.05
2022-08-01T21:03:45.345Z,22.95
2022-08-01T21:06:14.751Z,22.85
2022-08-01T21:08:44.135Z,22.85
2022-08-01T21:11:19.530Z,22.85
2022-08-01T21:13:48.069Z,22.81
2022-08-01T21:16:25.339Z,22.67
2022-08-01T21:21:51.004Z,22.49
2022-08-01T21:24:18.961Z,22.42
2022-08-01T21:26:46.531Z,22.27
2022-08-01T21:29:13.977Z,22.25
2022-08-01T21:31:41.661Z,22.24
2022-08-01T21:34:09.217Z,22.29
2022-08-01T21:36:36.678Z,22.21
2022-08-01T21:39:05.844Z,22.06
2022-08-01T21:41:56.742Z,22.03
2022-08-01T21:44:20.019Z,22.06
2022-08-01T21:46:48.242Z,22.02
2022-08-01T21:49:14.998Z,22.03
2022-08-01T21:51:51.673Z,21.96
2022-08-01T21:54:28.542Z,21.96
2022-08-01T21:57:14.261Z,21.89
2022-08-01T22:00:02.181Z,21.90
2022-08-01T22:02:36.621Z,21.81
2022-08-01T22:05:09.259Z,21.78
2022-08-01T22:07:45.983Z,21.71
2022-08-01T22:10:18.375Z,21.64
2022-08-01T22:12:46.180Z,21.67
2022-08-01T22:15:14.077Z,21.61
2022-08-01T22:17:41.855Z,21.52
2022-08-01T22:20:09.215Z,21.39
2022-08-01T22:22:51.429Z,21.27
2022-08-01T22:25:21.087Z,21.21
2022-08-01T22:28:06.335Z,21.16
2022-08-01T22:30:39.886Z,21.13
2022-08-01T22:33:17.129Z,21.11
2022-08-01T22:35:55.563Z,21.09
2022-08-01T22:38:24.392Z,21.12
2022-08-01T22:40:51.038Z,21.06
2022-08-01T22:43:29.377Z,21.02
2022-08-01T22:46:14.602Z,20.89
2022-08-01T22:48:51.231Z,20.86
2022-08-01T22:51:38.241Z,20.84
2022-08-01T22:54:09.853Z,20.70
2022-08-01T22:56:41.449Z,20.59
2022-08-01T22:59:13.852Z,20.57
2022-08-01T23:01:47.552Z,20.52
2022-08-01T23:04:35.140Z,20.49
2022-08-01T23:07:05.915Z,20.46
2022-08-01T23:09:52.972Z,20.35
2022-08-01T23:12:24.496Z,20.29
2022-08-01T23:14:57.290Z,20.19
2022-08-01T23:17:28.802Z,20.18
2022-08-01T23:20:01.657Z,20.09
2022-08-01T23:22:31.210Z,20.07
2022-08-01T23:25:05.057Z,20.00
2022-08-01T23:27:51.540Z,19.88
2022-08-01T23:30:25.386Z,19.87
2022-08-01T23:32:51.887Z,19.82
2022-08-01T23:35:18.464Z,19.81
2022-08-01T23:37:45.133Z,19.78
2022-08-01T23:40:12.315Z,19.75
2022-08-01T23:42:38.991Z,19.72
2022-08-01T23:45:07.005Z,19.71
2022-08-01T23:47:33.601Z,19.69
2022-08-01T23:50:00.278Z,19.59
2022-08-01T23:52:32.339Z,19.54
2022-08-01T23:55:04.523Z,19.52
2022-08-01T23:57:41.777Z,19.50
